sensor_id;sensor_type;location;lat;lon;timestamp;P1;durP1;ratioP1;P2;durP2;ratioP2
5167;SDS011;2603;48.918;8.980;2023-09-08T00:00:00;10.83;;;5.80;;
5167;SDS011;2603;48.918;8.980;2023-09-08T00:02:29;10.00;;;6.77;;
5167;SDS011;2603;48.918;8.980;2023-09-08T00:04:56;10.20;;;6.13;;
5167;SDS011;2603;48.918;8.980;2023-09-08T00:07:22;10.40;;;5.90;;
5167;SDS011;2603;48.918;8.980;2023-09-08T00:09:49;11.40;;;5.60;;
5167;SDS011;2603;48.918;8.980;2023-09-08T00:12:16;8.23;;;5.60;;
5167;SDS011;2603;48.918;8.980;2023-09-08T00:14:44;8.50;;;5.83;;
5167;SDS011;2603;48.918;8.980;2023-09-08T00:17:10;9.93;;;5.73;;
5167;SDS011;2603;48.918;8.980;2023-09-08T00:19:37;8.40;;;5.43;;
5167;SDS011;2603;48.918;8.980;2023-09-08T00:22:04;7.97;;;5.83;;
5167;SDS011;2603;48.918;8.980;2023-09-08T00:24:32;9.90;;;6.23;;
5167;SDS011;2603;48.918;8.980;2023-09-08T00:26:59;11.50;;;6.83;;
5167;SDS011;2603;48.918;8.980;2023-09-08T00:29:25;8.47;;;5.43;;
5167;SDS011;2603;48.918;8.980;2023-09-08T00:31:53;11.10;;;5.67;;
5167;SDS011;2603;48.918;8.980;2023-09-08T00:34:20;13.50;;;5.83;;
5167;SDS011;2603;48.918;8.980;2023-09-08T00:36:47;9.90;;;5.63;;
5167;SDS011;2603;48.918;8.980;2023-09-08T00:39:14;14.17;;;6.30;;
5167;SDS011;2603;48.918;8.980;2023-09-08T00:41:41;12.63;;;5.87;;
5167;SDS011;2603;48.918;8.980;2023-09-08T00:44:07;9.00;;;5.23;;
5167;SDS011;2603;48.918;8.980;2023-09-08T00:46:36;10.73;;;6.07;;
5167;SDS011;2603;48.918;8.980;2023-09-08T00:49:04;12.20;;;6.30;;
5167;SDS011;2603;48.918;8.980;2023-09-08T00:51:31;9.97;;;5.50;;
5167;SDS011;2603;48.918;8.980;2023-09-08T00:54:00;8.80;;;5.40;;
5167;SDS011;2603;48.918;8.980;2023-09-08T00:56:27;9.70;;;6.00;;
5167;SDS011;2603;48.918;8.980;2023-09-08T00:58:55;10.00;;;6.23;;
5167;SDS011;2603;48.918;8.980;2023-09-08T01:01:22;10.87;;;6.73;;
5167;SDS011;2603;48.918;8.980;2023-09-08T01:03:49;11.93;;;5.70;;
5167;SDS011;2603;48.918;8.980;2023-09-08T01:06:17;8.90;;;6.13;;
5167;SDS011;2603;48.918;8.980;2023-09-08T01:08:46;7.90;;;6.17;;
5167;SDS011;2603;48.918;8.980;2023-09-08T01:11:12;19.47;;;6.63;;
5167;SDS011;2603;48.918;8.980;2023-09-08T01:13:39;10.30;;;6.33;;
5167;SDS011;2603;48.918;8.980;2023-09-08T01:16:07;8.57;;;5.90;;
5167;SDS011;2603;48.918;8.980;2023-09-08T01:18:34;7.57;;;5.00;;
5167;SDS011;2603;48.918;8.980;2023-09-08T01:21:03;9.70;;;5.90;;
5167;SDS011;2603;48.918;8.980;2023-09-08T01:23:42;7.77;;;5.27;;
5167;SDS011;2603;48.918;8.980;2023-09-08T01:26:19;11.33;;;6.57;;
5167;SDS011;2603;48.918;8.980;2023-09-08T01:28:48;11.20;;;5.80;;
5167;SDS011;2603;48.918;8.980;2023-09-08T01:31:15;8.67;;;6.10;;
5167;SDS011;2603;48.918;8.980;2023-09-08T01:33:43;11.80;;;6.53;;
5167;SDS011;2603;48.918;8.980;2023-09-08T01:36:10;8.67;;;6.37;;
5167;SDS011;2603;48.918;8.980;2023-09-08T01:38:37;19.63;;;7.10;;
5167;SDS011;2603;48.918;8.980;2023-09-08T01:41:04;11.03;;;6.30;;
5167;SDS011;2603;48.918;8.980;2023-09-08T01:43:32;14.47;;;6.13;;
5167;SDS011;2603;48.918;8.980;2023-09-08T01:45:58;6.77;;;5.00;;
5167;SDS011;2603;48.918;8.980;2023-09-08T01:48:25;13.23;;;6.00;;
5167;SDS011;2603;48.918;8.980;2023-09-08T01:50:52;11.60;;;6.40;;
5167;SDS011;2603;48.918;8.980;2023-09-08T01:53:19;10.20;;;6.50;;
5167;SDS011;2603;48.918;8.980;2023-09-08T01:55:47;7.43;;;5.60;;
5167;SDS011;2603;48.918;8.980;2023-09-08T01:58:14;10.10;;;6.43;;
5167;SDS011;2603;48.918;8.980;2023-09-08T02:00:42;15.13;;;6.83;;
5167;SDS011;2603;48.918;8.980;2023-09-08T02:03:08;10.70;;;6.43;;
5167;SDS011;2603;48.918;8.980;2023-09-08T02:05:35;8.70;;;6.03;;
5167;SDS011;2603;48.918;8.980;2023-09-08T02:08:04;10.33;;;5.70;;
5167;SDS011;2603;48.918;8.980;2023-09-08T02:10:32;12.47;;;6.43;;
5167;SDS011;2603;48.918;8.980;2023-09-08T02:12:58;10.07;;;5.67;;
5167;SDS011;2603;48.918;8.980;2023-09-08T02:15:25;9.43;;;5.40;;
5167;SDS011;2603;48.918;8.980;2023-09-08T02:17:53;10.50;;;6.50;;
5167;SDS011;2603;48.918;8.980;2023-09-08T02:20:20;11.23;;;5.77;;
5167;SDS011;2603;48.918;8.980;2023-09-08T02:22:47;10.67;;;6.77;;
5167;SDS011;2603;48.918;8.980;2023-09-08T02:25:16;11.23;;;6.87;;
5167;SDS011;2603;48.918;8.980;2023-09-08T02:27:43;8.10;;;5.97;;
5167;SDS011;2603;48.918;8.980;2023-09-08T02:30:10;12.33;;;5.80;;
5167;SDS011;2603;48.918;8.980;2023-09-08T02:32:37;9.70;;;6.07;;
5167;SDS011;2603;48.918;8.980;2023-09-08T02:35:06;9.50;;;6.47;;
5167;SDS011;2603;48.918;8.980;2023-09-08T02:37:34;10.90;;;5.70;;
5167;SDS011;2603;48.918;8.980;2023-09-08T02:40:01;10.53;;;5.60;;
5167;SDS011;2603;48.918;8.980;2023-09-08T02:42:29;9.87;;;6.40;;
5167;SDS011;2603;48.918;8.980;2023-09-08T02:44:56;9.63;;;6.67;;
5167;SDS011;2603;48.918;8.980;2023-09-08T02:47:23;9.00;;;6.33;;
5167;SDS011;2603;48.918;8.980;2023-09-08T02:49:50;10.87;;;6.47;;
5167;SDS011;2603;48.918;8.980;2023-09-08T02:52:18;14.00;;;7.23;;
5167;SDS011;2603;48.918;8.980;2023-09-08T02:54:45;10.87;;;6.67;;
5167;SDS011;2603;48.918;8.980;2023-09-08T02:57:11;8.90;;;5.80;;
5167;SDS011;2603;48.918;8.980;2023-09-08T02:59:39;10.77;;;6.70;;
5167;SDS011;2603;48.918;8.980;2023-09-08T03:02:07;12.80;;;6.83;;
5167;SDS011;2603;48.918;8.980;2023-09-08T03:04:34;9.37;;;6.43;;
5167;SDS011;2603;48.918;8.980;2023-09-08T03:07:02;10.97;;;6.10;;
5167;SDS011;2603;48.918;8.980;2023-09-08T03:09:31;11.27;;;7.27;;
5167;SDS011;2603;48.918;8.980;2023-09-08T03:11:59;11.60;;;7.33;;
5167;SDS011;2603;48.918;8.980;2023-09-08T03:14:27;11.37;;;7.63;;
5167;SDS011;2603;48.918;8.980;2023-09-08T03:16:54;10.97;;;7.73;;
5167;SDS011;2603;48.918;8.980;2023-09-08T03:19:21;16.00;;;7.37;;
5167;SDS011;2603;48.918;8.980;2023-09-08T03:21:48;8.63;;;5.87;;
5167;SDS011;2603;48.918;8.980;2023-09-08T03:24:14;11.80;;;6.67;;
5167;SDS011;2603;48.918;8.980;2023-09-08T03:26:42;14.80;;;7.17;;
5167;SDS011;2603;48.918;8.980;2023-09-08T03:29:09;9.17;;;5.93;;
5167;SDS011;2603;48.918;8.980;2023-09-08T03:31:36;8.77;;;5.80;;
5167;SDS011;2603;48.918;8.980;2023-09-08T03:34:02;9.70;;;6.77;;
5167;SDS011;2603;48.918;8.980;2023-09-08T03:36:29;10.70;;;6.87;;
5167;SDS011;2603;48.918;8.980;2023-09-08T03:38:56;10.30;;;6.73;;
5167;SDS011;2603;48.918;8.980;2023-09-08T03:41:23;9.23;;;6.63;;
5167;SDS011;2603;48.918;8.980;2023-09-08T03:43:51;9.80;;;6.83;;
5167;SDS011;2603;48.918;8.980;2023-09-08T03:46:18;9.90;;;6.30;;
5167;SDS011;2603;48.918;8.980;2023-09-08T03:48:44;10.77;;;6.20;;
5167;SDS011;2603;48.918;8.980;2023-09-08T03:51:11;14.40;;;7.43;;
5167;SDS011;2603;48.918;8.980;2023-09-08T03:53:38;16.17;;;6.43;;
5167;SDS011;2603;48.918;8.980;2023-09-08T03:56:06;12.23;;;7.40;;
5167;SDS011;2603;48.918;8.980;2023-09-08T03:58:33;10.63;;;7.60;;
5167;SDS011;2603;48.918;8.980;2023-09-08T04:01:01;12.80;;;6.30;;
5167;SDS011;2603;48.918;8.980;2023-09-08T04:03:27;9.90;;;6.37;;
5167;SDS011;2603;48.918;8.980;2023-09-08T04:05:54;16.13;;;6.53;;
5167;SDS011;2603;48.918;8.980;2023-09-08T04:08:21;8.40;;;5.83;;
5167;SDS011;2603;48.918;8.980;2023-09-08T04:10:48;10.50;;;6.00;;
5167;SDS011;2603;48.918;8.980;2023-09-08T04:13:14;9.77;;;6.47;;
5167;SDS011;2603;48.918;8.980;2023-09-08T04:15:41;12.43;;;6.70;;
5167;SDS011;2603;48.918;8.980;2023-09-08T04:18:09;10.60;;;6.53;;
5167;SDS011;2603;48.918;8.980;2023-09-08T04:20:35;11.47;;;6.87;;
5167;SDS011;2603;48.918;8.980;2023-09-08T04:23:02;9.90;;;6.50;;
5167;SDS011;2603;48.918;8.980;2023-09-08T04:25:29;11.20;;;7.27;;
5167;SDS011;2603;48.918;8.980;2023-09-08T04:27:56;11.80;;;7.17;;
5167;SDS011;2603;48.918;8.980;2023-09-08T04:30:23;13.00;;;6.63;;
5167;SDS011;2603;48.918;8.980;2023-09-08T04:32:49;11.83;;;6.60;;
5167;SDS011;2603;48.918;8.980;2023-09-08T04:35:18;13.43;;;7.00;;
5167;SDS011;2603;48.918;8.980;2023-09-08T04:37:44;10.47;;;7.27;;
5167;SDS011;2603;48.918;8.980;2023-09-08T04:40:11;12.40;;;6.50;;
5167;SDS011;2603;48.918;8.980;2023-09-08T04:42:38;11.03;;;6.30;;
5167;SDS011;2603;48.918;8.980;2023-09-08T04:45:06;10.63;;;6.87;;
5167;SDS011;2603;48.918;8.980;2023-09-08T04:47:34;10.00;;;6.30;;
5167;SDS011;2603;48.918;8.980;2023-09-08T04:50:01;12.60;;;6.37;;
5167;SDS011;2603;48.918;8.980;2023-09-08T04:52:30;11.63;;;6.53;;
5167;SDS011;2603;48.918;8.980;2023-09-08T04:54:57;8.67;;;6.10;;
5167;SDS011;2603;48.918;8.980;2023-09-08T04:57:24;9.77;;;6.70;;
5167;SDS011;2603;48.918;8.980;2023-09-08T04:59:56;11.50;;;6.97;;
5167;SDS011;2603;48.918;8.980;2023-09-08T05:02:22;10.10;;;7.03;;
5167;SDS011;2603;48.918;8.980;2023-09-08T05:04:49;15.07;;;7.40;;
5167;SDS011;2603;48.918;8.980;2023-09-08T05:07:16;10.20;;;6.83;;
5167;SDS011;2603;48.918;8.980;2023-09-08T05:09:45;13.20;;;6.60;;
5167;SDS011;2603;48.918;8.980;2023-09-08T05:12:12;15.50;;;6.80;;
5167;SDS011;2603;48.918;8.980;2023-09-08T05:14:39;13.23;;;6.23;;
5167;SDS011;2603;48.918;8.980;2023-09-08T05:17:06;8.63;;;5.90;;
5167;SDS011;2603;48.918;8.980;2023-09-08T05:19:33;9.60;;;6.07;;
5167;SDS011;2603;48.918;8.980;2023-09-08T05:22:01;10.80;;;7.07;;
5167;SDS011;2603;48.918;8.980;2023-09-08T05:24:29;9.50;;;5.70;;
5167;SDS011;2603;48.918;8.980;2023-09-08T05:26:57;11.47;;;6.87;;
5167;SDS011;2603;48.918;8.980;2023-09-08T05:29:25;11.70;;;7.00;;
5167;SDS011;2603;48.918;8.980;2023-09-08T05:31:53;12.83;;;6.70;;
5167;SDS011;2603;48.918;8.980;2023-09-08T05:34:20;10.63;;;6.50;;
5167;SDS011;2603;48.918;8.980;2023-09-08T05:36:47;10.00;;;6.07;;
5167;SDS011;2603;48.918;8.980;2023-09-08T05:39:14;8.97;;;5.80;;
5167;SDS011;2603;48.918;8.980;2023-09-08T05:41:42;10.87;;;6.23;;
5167;SDS011;2603;48.918;8.980;2023-09-08T05:44:10;9.77;;;6.03;;
5167;SDS011;2603;48.918;8.980;2023-09-08T05:46:38;11.33;;;6.67;;
5167;SDS011;2603;48.918;8.980;2023-09-08T05:49:04;8.63;;;5.67;;
5167;SDS011;2603;48.918;8.980;2023-09-08T05:51:32;9.67;;;6.23;;
5167;SDS011;2603;48.918;8.980;2023-09-08T05:54:00;8.10;;;5.80;;
5167;SDS011;2603;48.918;8.980;2023-09-08T05:56:29;10.73;;;6.97;;
5167;SDS011;2603;48.918;8.980;2023-09-08T05:58:56;11.10;;;7.33;;
5167;SDS011;2603;48.918;8.980;2023-09-08T06:01:24;15.07;;;7.60;;
5167;SDS011;2603;48.918;8.980;2023-09-08T06:03:51;11.13;;;7.80;;
5167;SDS011;2603;48.918;8.980;2023-09-08T06:06:19;15.90;;;6.90;;
5167;SDS011;2603;48.918;8.980;2023-09-08T06:08:49;9.70;;;6.97;;
5167;SDS011;2603;48.918;8.980;2023-09-08T06:11:18;17.27;;;7.27;;
5167;SDS011;2603;48.918;8.980;2023-09-08T06:13:46;12.50;;;8.57;;
5167;SDS011;2603;48.918;8.980;2023-09-08T06:16:14;9.07;;;7.07;;
5167;SDS011;2603;48.918;8.980;2023-09-08T06:18:42;8.57;;;6.90;;
5167;SDS011;2603;48.918;8.980;2023-09-08T06:21:13;20.30;;;7.90;;
5167;SDS011;2603;48.918;8.980;2023-09-08T06:23:40;14.73;;;7.80;;
5167;SDS011;2603;48.918;8.980;2023-09-08T06:26:07;13.03;;;6.53;;
5167;SDS011;2603;48.918;8.980;2023-09-08T06:28:36;10.77;;;7.10;;
5167;SDS011;2603;48.918;8.980;2023-09-08T06:31:03;14.73;;;6.70;;
5167;SDS011;2603;48.918;8.980;2023-09-08T06:33:30;12.73;;;5.97;;
5167;SDS011;2603;48.918;8.980;2023-09-08T06:35:59;10.90;;;7.17;;
5167;SDS011;2603;48.918;8.980;2023-09-08T06:38:26;11.47;;;7.70;;
5167;SDS011;2603;48.918;8.980;2023-09-08T06:40:57;9.60;;;7.10;;
5167;SDS011;2603;48.918;8.980;2023-09-08T06:43:24;14.13;;;7.30;;
5167;SDS011;2603;48.918;8.980;2023-09-08T06:45:57;10.37;;;6.97;;
5167;SDS011;2603;48.918;8.980;2023-09-08T06:48:24;9.40;;;6.03;;
5167;SDS011;2603;48.918;8.980;2023-09-08T06:50:52;11.93;;;7.27;;
5167;SDS011;2603;48.918;8.980;2023-09-08T06:53:21;10.27;;;6.90;;
5167;SDS011;2603;48.918;8.980;2023-09-08T06:55:50;12.17;;;7.83;;
5167;SDS011;2603;48.918;8.980;2023-09-08T06:58:17;8.40;;;6.73;;
5167;SDS011;2603;48.918;8.980;2023-09-08T07:00:44;12.20;;;7.23;;
5167;SDS011;2603;48.918;8.980;2023-09-08T07:03:10;10.27;;;7.20;;
5167;SDS011;2603;48.918;8.980;2023-09-08T07:05:38;11.70;;;7.20;;
5167;SDS011;2603;48.918;8.980;2023-09-08T07:08:06;14.10;;;7.00;;
5167;SDS011;2603;48.918;8.980;2023-09-08T07:10:35;10.50;;;6.97;;
5167;SDS011;2603;48.918;8.980;2023-09-08T07:13:02;9.30;;;7.27;;
5167;SDS011;2603;48.918;8.980;2023-09-08T07:15:28;14.90;;;6.83;;
5167;SDS011;2603;48.918;8.980;2023-09-08T07:17:56;12.00;;;6.73;;
5167;SDS011;2603;48.918;8.980;2023-09-08T07:20:23;9.53;;;6.80;;
5167;SDS011;2603;48.918;8.980;2023-09-08T07:22:49;9.43;;;6.80;;
5167;SDS011;2603;48.918;8.980;2023-09-08T07:25:16;13.87;;;8.20;;
5167;SDS011;2603;48.918;8.980;2023-09-08T07:27:45;9.00;;;7.20;;
5167;SDS011;2603;48.918;8.980;2023-09-08T07:30:12;11.23;;;6.90;;
5167;SDS011;2603;48.918;8.980;2023-09-08T07:32:39;12.70;;;6.63;;
5167;SDS011;2603;48.918;8.980;2023-09-08T07:35:06;13.27;;;6.67;;
5167;SDS011;2603;48.918;8.980;2023-09-08T07:37:39;21.07;;;7.03;;
5167;SDS011;2603;48.918;8.980;2023-09-08T07:40:07;10.90;;;7.30;;
5167;SDS011;2603;48.918;8.980;2023-09-08T07:42:35;11.53;;;6.73;;
5167;SDS011;2603;48.918;8.980;2023-09-08T07:45:03;15.60;;;7.67;;
5167;SDS011;2603;48.918;8.980;2023-09-08T07:47:31;15.73;;;7.50;;
5167;SDS011;2603;48.918;8.980;2023-09-08T07:52:42;10.60;;;7.00;;
5167;SDS011;2603;48.918;8.980;2023-09-08T07:55:09;11.63;;;6.80;;
5167;SDS011;2603;48.918;8.980;2023-09-08T07:57:35;10.00;;;6.20;;
5167;SDS011;2603;48.918;8.980;2023-09-08T08:00:04;17.53;;;7.77;;
5167;SDS011;2603;48.918;8.980;2023-09-08T08:02:37;10.60;;;6.93;;
5167;SDS011;2603;48.918;8.980;2023-09-08T08:05:04;9.20;;;6.80;;
5167;SDS011;2603;48.918;8.980;2023-09-08T08:07:32;9.40;;;6.17;;
5167;SDS011;2603;48.918;8.980;2023-09-08T08:09:59;9.87;;;6.40;;
5167;SDS011;2603;48.918;8.980;2023-09-08T08:12:25;9.80;;;6.73;;
5167;SDS011;2603;48.918;8.980;2023-09-08T08:14:52;9.00;;;5.87;;
5167;SDS011;2603;48.918;8.980;2023-09-08T08:17:20;13.27;;;5.77;;
5167;SDS011;2603;48.918;8.980;2023-09-08T08:19:48;14.50;;;6.37;;
5167;SDS011;2603;48.918;8.980;2023-09-08T08:22:14;12.43;;;6.77;;
5167;SDS011;2603;48.918;8.980;2023-09-08T08:24:41;11.47;;;6.27;;
5167;SDS011;2603;48.918;8.980;2023-09-08T08:27:08;8.67;;;6.00;;
5167;SDS011;2603;48.918;8.980;2023-09-08T08:29:34;11.20;;;6.20;;
5167;SDS011;2603;48.918;8.980;2023-09-08T08:32:01;14.50;;;7.97;;
5167;SDS011;2603;48.918;8.980;2023-09-08T08:34:30;8.33;;;5.77;;
5167;SDS011;2603;48.918;8.980;2023-09-08T08:36:56;11.90;;;5.67;;
5167;SDS011;2603;48.918;8.980;2023-09-08T08:39:23;10.07;;;5.77;;
5167;SDS011;2603;48.918;8.980;2023-09-08T08:41:50;13.80;;;6.03;;
5167;SDS011;2603;48.918;8.980;2023-09-08T08:44:17;9.20;;;5.90;;
5167;SDS011;2603;48.918;8.980;2023-09-08T08:46:45;10.40;;;6.60;;
5167;SDS011;2603;48.918;8.980;2023-09-08T08:49:12;7.70;;;5.67;;
5167;SDS011;2603;48.918;8.980;2023-09-08T08:51:42;7.73;;;5.60;;
5167;SDS011;2603;48.918;8.980;2023-09-08T08:54:10;11.93;;;5.63;;
5167;SDS011;2603;48.918;8.980;2023-09-08T08:56:37;7.80;;;5.37;;
5167;SDS011;2603;48.918;8.980;2023-09-08T08:59:04;10.60;;;5.33;;
5167;SDS011;2603;48.918;8.980;2023-09-08T09:01:31;11.53;;;5.73;;
5167;SDS011;2603;48.918;8.980;2023-09-08T09:03:57;8.77;;;6.23;;
5167;SDS011;2603;48.918;8.980;2023-09-08T09:06:24;11.70;;;5.30;;
5167;SDS011;2603;48.918;8.980;2023-09-08T09:08:52;15.90;;;6.27;;
5167;SDS011;2603;48.918;8.980;2023-09-08T09:11:18;12.73;;;6.43;;
5167;SDS011;2603;48.918;8.980;2023-09-08T09:13:45;9.77;;;5.50;;
5167;SDS011;2603;48.918;8.980;2023-09-08T09:16:11;9.30;;;6.37;;
5167;SDS011;2603;48.918;8.980;2023-09-08T09:21:23;7.20;;;5.13;;
5167;SDS011;2603;48.918;8.980;2023-09-08T09:23:51;9.30;;;5.50;;
5167;SDS011;2603;48.918;8.980;2023-09-08T09:26:24;7.43;;;5.60;;
5167;SDS011;2603;48.918;8.980;2023-09-08T09:28:51;12.40;;;6.00;;
5167;SDS011;2603;48.918;8.980;2023-09-08T09:31:22;9.40;;;6.43;;
5167;SDS011;2603;48.918;8.980;2023-09-08T09:34:00;12.00;;;6.00;;
5167;SDS011;2603;48.918;8.980;2023-09-08T09:36:29;13.17;;;6.13;;
5167;SDS011;2603;48.918;8.980;2023-09-08T09:38:59;11.40;;;5.80;;
5167;SDS011;2603;48.918;8.980;2023-09-08T09:41:27;12.03;;;6.00;;
5167;SDS011;2603;48.918;8.980;2023-09-08T09:43:54;11.87;;;7.17;;
5167;SDS011;2603;48.918;8.980;2023-09-08T09:46:21;6.50;;;4.87;;
5167;SDS011;2603;48.918;8.980;2023-09-08T09:48:50;7.27;;;5.30;;
5167;SDS011;2603;48.918;8.980;2023-09-08T09:51:18;13.87;;;6.30;;
5167;SDS011;2603;48.918;8.980;2023-09-08T09:53:45;11.73;;;5.60;;
5167;SDS011;2603;48.918;8.980;2023-09-08T09:56:14;9.77;;;5.50;;
5167;SDS011;2603;48.918;8.980;2023-09-08T09:58:41;10.10;;;5.87;;
5167;SDS011;2603;48.918;8.980;2023-09-08T10:01:08;9.50;;;5.63;;
5167;SDS011;2603;48.918;8.980;2023-09-08T10:03:37;12.43;;;5.77;;
5167;SDS011;2603;48.918;8.980;2023-09-08T10:06:05;10.50;;;6.40;;
5167;SDS011;2603;48.918;8.980;2023-09-08T10:08:33;9.03;;;6.43;;
5167;SDS011;2603;48.918;8.980;2023-09-08T10:11:02;9.47;;;5.50;;
5167;SDS011;2603;48.918;8.980;2023-09-08T10:13:37;7.87;;;5.10;;
5167;SDS011;2603;48.918;8.980;2023-09-08T10:16:06;12.43;;;5.20;;
5167;SDS011;2603;48.918;8.980;2023-09-08T10:18:34;8.03;;;5.80;;
5167;SDS011;2603;48.918;8.980;2023-09-08T10:21:03;8.10;;;5.07;;
5167;SDS011;2603;48.918;8.980;2023-09-08T10:23:31;8.90;;;5.17;;
5167;SDS011;2603;48.918;8.980;2023-09-08T10:26:02;15.53;;;4.83;;
5167;SDS011;2603;48.918;8.980;2023-09-08T10:28:29;7.60;;;5.03;;
5167;SDS011;2603;48.918;8.980;2023-09-08T10:30:58;8.70;;;5.60;;
5167;SDS011;2603;48.918;8.980;2023-09-08T10:33:27;7.83;;;5.00;;
5167;SDS011;2603;48.918;8.980;2023-09-08T10:35:54;7.50;;;5.40;;
5167;SDS011;2603;48.918;8.980;2023-09-08T10:38:22;10.47;;;5.00;;
5167;SDS011;2603;48.918;8.980;2023-09-08T10:40:49;9.10;;;6.10;;
5167;SDS011;2603;48.918;8.980;2023-09-08T10:43:17;10.70;;;5.10;;
5167;SDS011;2603;48.918;8.980;2023-09-08T10:45:47;7.70;;;5.10;;
5167;SDS011;2603;48.918;8.980;2023-09-08T10:48:15;7.83;;;5.70;;
5167;SDS011;2603;48.918;8.980;2023-09-08T10:50:42;11.60;;;6.17;;
5167;SDS011;2603;48.918;8.980;2023-09-08T10:53:12;10.60;;;5.93;;
5167;SDS011;2603;48.918;8.980;2023-09-08T10:55:41;7.37;;;5.67;;
5167;SDS011;2603;48.918;8.980;2023-09-08T10:58:16;10.50;;;5.17;;
5167;SDS011;2603;48.918;8.980;2023-09-08T11:00:44;7.00;;;5.17;;
5167;SDS011;2603;48.918;8.980;2023-09-08T11:03:12;9.23;;;4.77;;
5167;SDS011;2603;48.918;8.980;2023-09-08T11:05:42;8.80;;;5.07;;
5167;SDS011;2603;48.918;8.980;2023-09-08T11:08:10;8.77;;;4.87;;
5167;SDS011;2603;48.918;8.980;2023-09-08T11:10:37;13.70;;;5.57;;
5167;SDS011;2603;48.918;8.980;2023-09-08T11:13:06;7.30;;;5.20;;
5167;SDS011;2603;48.918;8.980;2023-09-08T11:15:32;7.63;;;5.47;;
5167;SDS011;2603;48.918;8.980;2023-09-08T11:18:04;10.67;;;5.73;;
5167;SDS011;2603;48.918;8.980;2023-09-08T11:20:31;8.07;;;5.17;;
5167;SDS011;2603;48.918;8.980;2023-09-08T11:22:58;10.73;;;5.80;;
5167;SDS011;2603;48.918;8.980;2023-09-08T11:25:25;12.43;;;6.17;;
5167;SDS011;2603;48.918;8.980;2023-09-08T11:27:52;6.47;;;5.03;;
5167;SDS011;2603;48.918;8.980;2023-09-08T11:30:18;10.03;;;5.87;;
5167;SDS011;2603;48.918;8.980;2023-09-08T11:32:45;7.80;;;5.73;;
5167;SDS011;2603;48.918;8.980;2023-09-08T11:35:12;9.13;;;5.60;;
5167;SDS011;2603;48.918;8.980;2023-09-08T11:37:41;8.30;;;5.53;;
5167;SDS011;2603;48.918;8.980;2023-09-08T11:40:09;9.50;;;6.00;;
5167;SDS011;2603;48.918;8.980;2023-09-08T11:42:37;7.83;;;5.37;;
5167;SDS011;2603;48.918;8.980;2023-09-08T11:45:09;11.60;;;5.17;;
5167;SDS011;2603;48.918;8.980;2023-09-08T11:47:39;9.03;;;5.73;;
5167;SDS011;2603;48.918;8.980;2023-09-08T11:50:06;18.37;;;5.30;;
5167;SDS011;2603;48.918;8.980;2023-09-08T11:52:34;9.00;;;5.60;;
5167;SDS011;2603;48.918;8.980;2023-09-08T11:55:00;7.00;;;5.33;;
5167;SDS011;2603;48.918;8.980;2023-09-08T11:57:29;8.17;;;4.77;;
5167;SDS011;2603;48.918;8.980;2023-09-08T11:59:56;8.93;;;5.03;;
5167;SDS011;2603;48.918;8.980;2023-09-08T12:02:23;11.93;;;5.70;;
5167;SDS011;2603;48.918;8.980;2023-09-08T12:04:52;6.77;;;4.50;;
5167;SDS011;2603;48.918;8.980;2023-09-08T12:07:19;6.90;;;4.80;;
5167;SDS011;2603;48.918;8.980;2023-09-08T12:09:46;7.57;;;5.10;;
5167;SDS011;2603;48.918;8.980;2023-09-08T12:12:13;6.67;;;4.97;;
5167;SDS011;2603;48.918;8.980;2023-09-08T12:14:42;5.90;;;4.63;;
5167;SDS011;2603;48.918;8.980;2023-09-08T12:17:09;6.93;;;4.80;;
5167;SDS011;2603;48.918;8.980;2023-09-08T12:19:35;9.73;;;5.00;;
5167;SDS011;2603;48.918;8.980;2023-09-08T12:22:04;12.40;;;5.63;;
5167;SDS011;2603;48.918;8.980;2023-09-08T12:24:56;8.00;;;5.30;;
5167;SDS011;2603;48.918;8.980;2023-09-08T12:27:24;7.90;;;4.70;;
5167;SDS011;2603;48.918;8.980;2023-09-08T12:29:55;6.77;;;4.03;;
5167;SDS011;2603;48.918;8.980;2023-09-08T12:32:23;7.40;;;4.77;;
5167;SDS011;2603;48.918;8.980;2023-09-08T12:34:50;7.73;;;4.80;;
5167;SDS011;2603;48.918;8.980;2023-09-08T12:37:19;6.03;;;4.83;;
5167;SDS011;2603;48.918;8.980;2023-09-08T12:39:46;10.50;;;5.17;;
5167;SDS011;2603;48.918;8.980;2023-09-08T12:42:13;6.67;;;4.80;;
5167;SDS011;2603;48.918;8.980;2023-09-08T12:44:39;7.90;;;4.30;;
5167;SDS011;2603;48.918;8.980;2023-09-08T12:47:09;8.17;;;4.97;;
5167;SDS011;2603;48.918;8.980;2023-09-08T12:49:36;9.03;;;4.73;;
5167;SDS011;2603;48.918;8.980;2023-09-08T12:52:03;5.90;;;4.00;;
5167;SDS011;2603;48.918;8.980;2023-09-08T12:54:30;10.93;;;5.03;;
5167;SDS011;2603;48.918;8.980;2023-09-08T12:56:56;6.23;;;4.13;;
5167;SDS011;2603;48.918;8.980;2023-09-08T12:59:23;7.57;;;5.13;;
5167;SDS011;2603;48.918;8.980;2023-09-08T13:01:49;6.67;;;5.07;;
5167;SDS011;2603;48.918;8.980;2023-09-08T13:04:17;7.80;;;4.83;;
5167;SDS011;2603;48.918;8.980;2023-09-08T13:06:44;7.57;;;5.23;;
5167;SDS011;2603;48.918;8.980;2023-09-08T13:09:10;9.00;;;4.80;;
5167;SDS011;2603;48.918;8.980;2023-09-08T13:11:42;5.73;;;4.70;;
5167;SDS011;2603;48.918;8.980;2023-09-08T13:14:09;5.83;;;4.53;;
5167;SDS011;2603;48.918;8.980;2023-09-08T13:16:36;10.23;;;3.90;;
5167;SDS011;2603;48.918;8.980;2023-09-08T13:19:02;7.60;;;4.37;;
5167;SDS011;2603;48.918;8.980;2023-09-08T13:21:30;10.07;;;4.30;;
5167;SDS011;2603;48.918;8.980;2023-09-08T13:23:57;9.90;;;4.03;;
5167;SDS011;2603;48.918;8.980;2023-09-08T13:26:23;9.87;;;4.77;;
5167;SDS011;2603;48.918;8.980;2023-09-08T13:28:50;8.47;;;4.50;;
5167;SDS011;2603;48.918;8.980;2023-09-08T13:31:17;8.13;;;4.87;;
5167;SDS011;2603;48.918;8.980;2023-09-08T13:33:44;5.30;;;4.20;;
5167;SDS011;2603;48.918;8.980;2023-09-08T13:36:10;5.57;;;3.83;;
5167;SDS011;2603;48.918;8.980;2023-09-08T13:38:38;4.63;;;3.37;;
5167;SDS011;2603;48.918;8.980;2023-09-08T13:41:05;7.13;;;4.00;;
5167;SDS011;2603;48.918;8.980;2023-09-08T13:43:31;8.10;;;4.20;;
5167;SDS011;2603;48.918;8.980;2023-09-08T13:45:58;5.40;;;3.73;;
5167;SDS011;2603;48.918;8.980;2023-09-08T13:48:25;6.10;;;4.40;;
5167;SDS011;2603;48.918;8.980;2023-09-08T13:50:52;8.00;;;3.80;;
5167;SDS011;2603;48.918;8.980;2023-09-08T13:53:21;7.47;;;3.67;;
5167;SDS011;2603;48.918;8.980;2023-09-08T13:55:48;8.13;;;3.87;;
5167;SDS011;2603;48.918;8.980;2023-09-08T13:58:16;7.87;;;4.63;;
5167;SDS011;2603;48.918;8.980;2023-09-08T14:00:43;5.70;;;4.30;;
5167;SDS011;2603;48.918;8.980;2023-09-08T14:03:09;6.80;;;4.37;;
5167;SDS011;2603;48.918;8.980;2023-09-08T14:05:36;6.97;;;4.17;;
5167;SDS011;2603;48.918;8.980;2023-09-08T14:08:03;6.50;;;4.20;;
5167;SDS011;2603;48.918;8.980;2023-09-08T14:10:29;5.87;;;4.03;;
5167;SDS011;2603;48.918;8.980;2023-09-08T14:12:57;7.07;;;4.27;;
5167;SDS011;2603;48.918;8.980;2023-09-08T14:15:24;10.03;;;4.57;;
5167;SDS011;2603;48.918;8.980;2023-09-08T14:17:50;5.23;;;4.20;;
5167;SDS011;2603;48.918;8.980;2023-09-08T14:20:18;7.07;;;3.70;;
5167;SDS011;2603;48.918;8.980;2023-09-08T14:22:44;6.43;;;4.30;;
5167;SDS011;2603;48.918;8.980;2023-09-08T14:25:11;5.83;;;4.07;;
5167;SDS011;2603;48.918;8.980;2023-09-08T14:27:38;7.10;;;4.20;;
5167;SDS011;2603;48.918;8.980;2023-09-08T14:30:06;7.47;;;4.30;;
5167;SDS011;2603;48.918;8.980;2023-09-08T14:32:33;8.60;;;3.43;;
5167;SDS011;2603;48.918;8.980;2023-09-08T14:35:00;5.80;;;3.20;;
5167;SDS011;2603;48.918;8.980;2023-09-08T14:37:27;5.83;;;3.60;;
5167;SDS011;2603;48.918;8.980;2023-09-08T14:39:54;8.43;;;4.20;;
5167;SDS011;2603;48.918;8.980;2023-09-08T14:42:20;5.83;;;4.00;;
5167;SDS011;2603;48.918;8.980;2023-09-08T14:44:47;6.47;;;4.07;;
5167;SDS011;2603;48.918;8.980;2023-09-08T14:47:20;6.30;;;3.83;;
5167;SDS011;2603;48.918;8.980;2023-09-08T14:49:47;15.93;;;4.60;;
5167;SDS011;2603;48.918;8.980;2023-09-08T14:52:13;9.90;;;3.90;;
5167;SDS011;2603;48.918;8.980;2023-09-08T14:54:41;7.77;;;4.17;;
5167;SDS011;2603;48.918;8.980;2023-09-08T14:57:08;5.40;;;4.07;;
5167;SDS011;2603;48.918;8.980;2023-09-08T14:59:34;7.07;;;3.73;;
5167;SDS011;2603;48.918;8.980;2023-09-08T15:02:01;8.23;;;4.17;;
5167;SDS011;2603;48.918;8.980;2023-09-08T15:04:30;5.20;;;4.20;;
5167;SDS011;2603;48.918;8.980;2023-09-08T15:06:56;13.93;;;4.23;;
5167;SDS011;2603;48.918;8.980;2023-09-08T15:09:23;6.03;;;4.20;;
5167;SDS011;2603;48.918;8.980;2023-09-08T15:11:49;7.83;;;4.00;;
5167;SDS011;2603;48.918;8.980;2023-09-08T15:14:19;5.00;;;3.80;;